createdAt,value
2019-02-26T00:00:07.631Z,9.80
2019-02-26T00:02:46.531Z,9.70
2019-02-26T00:05:17.307Z,9.70
2019-02-26T00:07:49.126Z,9.60
2019-02-26T00:10:16.381Z,9.60
2019-02-26T00:12:45.664Z,9.50
2019-02-26T00:15:15.387Z,9.50
2019-02-26T00:17:45.890Z,9.50
2019-02-26T00:20:17.703Z,9.50
2019-02-26T00:22:47.403Z,9.50
2019-02-26T00:25:17.970Z,9.50
2019-02-26T00:27:49.563Z,9.50
2019-02-26T00:30:18.888Z,9.40
2019-02-26T00:32:48.214Z,9.40
2019-02-26T00:35:19.097Z,9.40
2019-02-26T00:37:50.895Z,9.40
2019-02-26T00:40:20.170Z,9.40
2019-02-26T00:42:52.223Z,9.30
2019-02-26T00:45:24.677Z,9.30
2019-02-26T00:47:51.672Z,9.30
2019-02-26T00:50:21.619Z,9.20
2019-02-26T00:52:52.355Z,9.20
2019-02-26T00:55:25.218Z,9.20
2019-02-26T00:57:56.799Z,9.10
2019-02-26T01:00:26.299Z,9.10
2019-02-26T01:02:55.626Z,9.10
2019-02-26T01:05:25.283Z,9.00
2019-02-26T01:07:54.523Z,9.00
2019-02-26T01:10:24.175Z,9.00
2019-02-26T01:12:53.404Z,8.90
2019-02-26T01:15:22.789Z,8.90
2019-02-26T01:17:54.418Z,8.90
2019-02-26T01:20:25.665Z,8.80
2019-02-26T01:22:54.640Z,8.80
2019-02-26T01:25:23.906Z,8.80
2019-02-26T01:27:55.728Z,8.80
2019-02-26T01:30:27.030Z,8.70
2019-02-26T01:32:57.535Z,8.70
2019-02-26T01:35:28.229Z,8.70
2019-02-26T01:37:59.839Z,8.60
2019-02-26T01:40:28.471Z,8.60
2019-02-26T01:42:58.517Z,8.60
2019-02-26T01:45:30.447Z,8.50
2019-02-26T01:47:59.561Z,8.50
2019-02-26T01:50:30.745Z,8.40
2019-02-26T01:53:01.072Z,8.40
2019-02-26T01:55:30.552Z,8.40
2019-02-26T01:58:00.203Z,8.30
2019-02-26T02:00:29.919Z,8.30
2019-02-26T02:02:59.247Z,8.20
2019-02-26T02:05:29.653Z,8.20
2019-02-26T02:07:59.989Z,8.20
2019-02-26T02:10:29.267Z,8.20
2019-02-26T02:13:00.292Z,8.20
2019-02-26T02:15:29.685Z,8.20
2019-02-26T02:17:59.972Z,8.10
2019-02-26T02:20:30.787Z,7.90
2019-02-26T02:23:01.035Z,7.70
2019-02-26T02:25:33.177Z,7.40
2019-02-26T02:28:02.826Z,7.30
2019-02-26T02:30:35.413Z,7.20
2019-02-26T02:33:04.373Z,7.20
2019-02-26T02:35:33.759Z,7.10
2019-02-26T02:38:04.904Z,7.10
2019-02-26T02:40:34.100Z,7.10
2019-02-26T02:43:07.533Z,7.00
2019-02-26T02:45:35.373Z,7.00
2019-02-26T02:48:06.276Z,7.00
2019-02-26T02:50:35.901Z,6.90
2019-02-26T02:53:05.202Z,6.90
2019-02-26T02:55:34.887Z,6.80
2019-02-26T02:58:04.580Z,6.70
2019-02-26T03:00:34.490Z,6.70
2019-02-26T03:03:04.270Z,6.80
2019-02-26T03:05:35.140Z,6.90
2019-02-26T03:08:05.069Z,7.00
2019-02-26T03:10:36.648Z,7.00
2019-02-26T03:13:07.373Z,7.10
2019-02-26T03:15:36.426Z,7.10
2019-02-26T03:18:07.174Z,7.10
2019-02-26T03:20:40.280Z,7.00
2019-02-26T03:23:15.078Z,6.80
2019-02-26T03:25:41.443Z,6.70
2019-02-26T03:28:12.095Z,6.50
2019-02-26T03:30:44.332Z,6.40
2019-02-26T03:33:13.285Z,6.40
2019-02-26T03:35:42.633Z,6.30
2019-02-26T03:38:12.478Z,6.20
2019-02-26T03:40:42.175Z,6.10
2019-02-26T03:43:13.132Z,6.00
2019-02-26T03:45:47.382Z,6.00
2019-02-26T03:48:13.460Z,5.90
2019-02-26T03:50:44.608Z,5.90
2019-02-26T03:53:14.041Z,5.90
2019-02-26T03:55:44.021Z,5.90
2019-02-26T03:58:13.457Z,6.00
2019-02-26T04:00:43.936Z,6.10
2019-02-26T04:03:17.150Z,6.20
2019-02-26T04:05:45.621Z,6.20
2019-02-26T04:08:16.667Z,6.30
2019-02-26T04:10:47.960Z,6.30
2019-02-26T04:13:16.856Z,6.20
2019-02-26T04:15:46.125Z,5.90
2019-02-26T04:18:15.484Z,5.80
2019-02-26T04:20:44.810Z,5.60
2019-02-26T04:23:16.711Z,5.60
2019-02-26T04:26:35.680Z,5.60
2019-02-26T04:29:35.365Z,5.60
2019-02-26T04:32:53.139Z,5.50
2019-02-26T04:35:33.074Z,5.50
2019-02-26T04:38:55.671Z,5.50
2019-02-26T04:41:47.733Z,5.50
2019-02-26T04:44:52.392Z,5.50
2019-02-26T04:47:24.316Z,5.50
2019-02-26T04:49:54.408Z,5.60
2019-02-26T04:52:24.869Z,5.60
2019-02-26T04:54:54.253Z,5.70
2019-02-26T04:57:23.663Z,5.80
2019-02-26T04:59:55.473Z,5.80
2019-02-26T05:02:24.712Z,5.90
2019-02-26T05:04:54.403Z,5.90
2019-02-26T05:07:23.750Z,5.90
2019-02-26T05:09:55.529Z,6.00
2019-02-26T05:12:25.300Z,6.00
2019-02-26T05:14:56.142Z,6.00
2019-02-26T05:17:29.645Z,6.00
2019-02-26T05:19:56.875Z,6.00
2019-02-26T05:22:29.777Z,6.00
2019-02-26T05:24:57.397Z,6.00
2019-02-26T05:27:26.789Z,6.10
2019-02-26T05:29:56.389Z,6.00
2019-02-26T05:32:29.410Z,6.00
2019-02-26T05:34:56.737Z,5.90
2019-02-26T05:37:28.853Z,5.90
2019-02-26T05:39:57.669Z,5.90
2019-02-26T05:42:27.040Z,5.90
2019-02-26T05:44:59.066Z,5.80
2019-02-26T05:47:27.515Z,5.80
2019-02-26T05:49:56.930Z,5.80
2019-02-26T05:52:27.243Z,5.80
2019-02-26T05:54:57.565Z,5.80
2019-02-26T05:57:32.346Z,5.80
2019-02-26T05:59:57.843Z,5.90
2019-02-26T06:02:27.519Z,5.90
2019-02-26T06:04:57.016Z,5.90
2019-02-26T06:07:28.094Z,6.00
2019-02-26T06:09:59.227Z,6.00
2019-02-26T06:12:32.391Z,6.00
2019-02-26T06:15:02.141Z,6.10
2019-02-26T06:17:30.785Z,6.00
2019-02-26T06:20:11.456Z,6.10
2019-02-26T06:22:40.818Z,6.10
2019-02-26T06:25:14.940Z,6.10
2019-02-26T06:27:41.461Z,6.10
2019-02-26T06:30:12.439Z,6.10
2019-02-26T06:32:44.604Z,6.00
2019-02-26T06:35:16.545Z,6.10
2019-02-26T06:37:45.823Z,6.00
2019-02-26T06:40:15.552Z,6.10
2019-02-26T06:42:44.916Z,6.10
2019-02-26T06:45:16.507Z,6.10
2019-02-26T06:47:47.889Z,6.10
2019-02-26T06:50:18.865Z,6.10
2019-02-26T06:52:50.608Z,6.10
2019-02-26T06:55:19.478Z,6.10
2019-02-26T06:57:50.815Z,6.00
2019-02-26T07:00:23.854Z,6.00
2019-02-26T07:02:51.227Z,6.10
2019-02-26T07:05:23.926Z,6.10
2019-02-26T07:07:52.595Z,6.10
2019-02-26T07:10:25.978Z,6.20
2019-02-26T07:12:53.478Z,6.20
2019-02-26T07:15:28.766Z,6.30
2019-02-26T07:18:00.091Z,6.30
2019-02-26T07:20:34.016Z,6.40
2019-02-26T07:23:00.768Z,6.40
2019-02-26T07:25:31.797Z,6.40
2019-02-26T07:28:02.855Z,6.50
2019-02-26T07:30:35.342Z,6.50
2019-02-26T07:33:07.579Z,6.60
2019-02-26T07:35:37.358Z,6.70
2019-02-26T07:38:07.574Z,6.80
2019-02-26T07:40:38.627Z,6.90
2019-02-26T07:43:09.841Z,6.90
2019-02-26T07:45:39.118Z,6.90
2019-02-26T07:48:08.600Z,7.00
2019-02-26T07:50:40.585Z,7.10
2019-02-26T07:53:09.264Z,7.20
2019-02-26T07:55:41.945Z,7.20
2019-02-26T07:58:11.561Z,7.20
2019-02-26T08:00:42.878Z,7.20
2019-02-26T08:03:11.796Z,7.30
2019-02-26T08:05:41.177Z,7.30
2019-02-26T08:08:12.005Z,7.40
2019-02-26T08:10:42.841Z,7.50
2019-02-26T08:13:12.689Z,7.60
2019-02-26T08:15:42.675Z,7.60
2019-02-26T08:18:12.090Z,7.70
2019-02-26T08:20:41.746Z,7.70
2019-02-26T08:23:11.039Z,7.80
2019-02-26T08:25:40.243Z,7.90
2019-02-26T08:28:09.583Z,8.00
2019-02-26T08:30:42.305Z,8.10
2019-02-26T08:33:11.029Z,8.10
2019-02-26T08:35:40.218Z,8.20
2019-02-26T08:38:09.573Z,8.40
2019-02-26T08:40:39.139Z,8.50
2019-02-26T08:43:08.581Z,8.50
2019-02-26T08:45:37.989Z,8.60
2019-02-26T08:48:07.397Z,8.70
2019-02-26T08:50:38.844Z,8.80
2019-02-26T08:53:07.885Z,8.90
2019-02-26T08:55:37.987Z,9.00
2019-02-26T08:58:07.772Z,9.10
2019-02-26T09:00:38.444Z,9.10
2019-02-26T09:03:08.828Z,9.20
2019-02-26T09:05:39.406Z,9.30
2019-02-26T09:08:10.864Z,9.40
2019-02-26T09:10:41.342Z,9.50
2019-02-26T09:13:13.836Z,9.50
2019-02-26T09:15:43.222Z,9.60
2019-02-26T09:18:12.720Z,9.70
2019-02-26T09:20:44.978Z,9.80
2019-02-26T09:23:18.832Z,9.90
2019-02-26T09:25:46.427Z,10.00
2019-02-26T09:28:17.040Z,10.10
2019-02-26T09:30:46.868Z,10.20
2019-02-26T09:33:16.258Z,10.30
2019-02-26T09:35:47.469Z,10.40
2019-02-26T09:38:17.642Z,10.50
2019-02-26T09:40:49.871Z,10.50
2019-02-26T09:43:19.677Z,10.60
2019-02-26T09:45:50.597Z,10.70
2019-02-26T09:48:21.961Z,10.80
2019-02-26T09:50:51.940Z,10.90
2019-02-26T09:53:21.686Z,11.00
2019-02-26T09:55:51.444Z,11.10
2019-02-26T09:58:22.893Z,11.20
2019-02-26T10:00:54.094Z,11.30
2019-02-26T10:03:23.147Z,11.40
2019-02-26T10:05:53.276Z,11.50
2019-02-26T10:08:25.356Z,11.60
2019-02-26T10:10:56.936Z,11.70
2019-02-26T10:13:27.741Z,11.80
2019-02-26T10:15:59.211Z,11.90
2019-02-26T10:18:30.343Z,11.90
2019-02-26T10:20:59.773Z,12.10
2019-02-26T10:23:32.998Z,12.30
2019-02-26T10:26:02.800Z,12.50
2019-02-26T10:28:35.213Z,12.60
2019-02-26T10:31:04.868Z,12.80
2019-02-26T10:33:35.782Z,13.00
2019-02-26T10:36:05.392Z,13.10
2019-02-26T10:38:36.530Z,13.30
2019-02-26T10:41:06.436Z,13.40
2019-02-26T10:43:36.032Z,13.60
2019-02-26T10:46:05.759Z,13.80
2019-02-26T10:48:35.115Z,14.00
2019-02-26T10:51:06.719Z,14.10
2019-02-26T10:53:39.188Z,14.40
2019-02-26T10:56:08.892Z,14.50
2019-02-26T10:58:40.825Z,14.60
2019-02-26T11:01:11.203Z,14.80
2019-02-26T11:03:43.425Z,15.00
2019-02-26T11:06:15.890Z,15.10
2019-02-26T11:08:42.956Z,15.20
2019-02-26T11:11:13.961Z,15.30
2019-02-26T11:13:46.997Z,15.30
2019-02-26T11:16:21.859Z,15.50
2019-02-26T11:18:47.702Z,15.60
2019-02-26T11:21:17.107Z,15.70
2019-02-26T11:23:46.524Z,15.80
2019-02-26T11:26:18.106Z,16.00
2019-02-26T11:28:47.930Z,16.20
2019-02-26T11:31:20.503Z,16.30
2019-02-26T11:33:48.497Z,16.30
2019-02-26T11:36:18.141Z,16.20
2019-02-26T11:38:47.516Z,16.30
2019-02-26T11:41:16.927Z,16.40
2019-02-26T11:43:46.883Z,16.60
2019-02-26T11:46:16.198Z,16.50
2019-02-26T11:48:47.687Z,16.60
2019-02-26T11:51:18.426Z,16.60
2019-02-26T11:53:49.212Z,16.70
2019-02-26T11:56:21.304Z,16.90
2019-02-26T11:58:50.073Z,17.10
2019-02-26T12:01:19.816Z,17.20
2019-02-26T12:03:49.497Z,17.20
2019-02-26T12:06:19.285Z,17.10
2019-02-26T12:08:50.078Z,17.10
2019-02-26T12:11:20.419Z,17.30
2019-02-26T12:13:53.021Z,17.50
2019-02-26T12:16:22.465Z,17.40
2019-02-26T12:18:51.833Z,17.40
2019-02-26T12:21:21.199Z,17.40
2019-02-26T12:23:50.835Z,17.40
2019-02-26T12:26:22.190Z,17.40
2019-02-26T12:28:52.356Z,17.30
2019-02-26T12:31:24.539Z,17.50
2019-02-26T12:33:53.825Z,17.40
2019-02-26T12:36:23.678Z,17.50
2019-02-26T12:38:56.341Z,17.80
2019-02-26T12:41:26.846Z,17.90
2019-02-26T12:43:59.334Z,17.80
2019-02-26T12:46:30.908Z,17.90
2019-02-26T12:48:58.463Z,18.00
2019-02-26T12:51:31.772Z,18.10
2019-02-26T12:54:01.204Z,18.00
2019-02-26T12:56:33.973Z,18.00
2019-02-26T12:59:03.306Z,18.30
2019-02-26T13:01:33.369Z,18.40
2019-02-26T13:04:03.074Z,18.60
2019-02-26T13:06:34.221Z,18.70
2019-02-26T13:09:04.232Z,18.80
2019-02-26T13:11:33.931Z,18.70
2019-02-26T13:14:04.152Z,18.80
2019-02-26T13:16:33.518Z,18.80
2019-02-26T13:19:04.654Z,18.80
2019-02-26T13:21:33.840Z,18.80
2019-02-26T13:24:11.790Z,18.90
2019-02-26T13:26:36.394Z,18.90
2019-02-26T13:29:05.680Z,19.00
2019-02-26T13:31:41.745Z,19.00
2019-02-26T13:34:05.983Z,19.00
2019-02-26T13:36:36.917Z,18.90
2019-02-26T13:39:07.428Z,18.80
2019-02-26T13:41:38.980Z,18.90
2019-02-26T13:44:11.034Z,19.10
2019-02-26T13:46:40.630Z,19.50
2019-02-26T13:49:11.587Z,19.70
2019-02-26T13:51:41.228Z,19.80
2019-02-26T13:54:10.612Z,19.90
2019-02-26T13:56:39.800Z,20.00
2019-02-26T13:59:09.172Z,20.10
2019-02-26T14:01:38.891Z,19.70
2019-02-26T14:04:08.241Z,19.10
2019-02-26T14:06:37.921Z,19.00
2019-02-26T14:09:07.303Z,19.10
2019-02-26T14:11:36.609Z,19.10
2019-02-26T14:14:06.337Z,19.10
2019-02-26T14:16:38.641Z,19.20
2019-02-26T14:19:10.035Z,19.30
2019-02-26T14:21:39.760Z,19.50
2019-02-26T14:24:09.217Z,19.60
2019-02-26T14:26:38.497Z,19.60
2019-02-26T14:29:08.075Z,19.50
2019-02-26T14:31:37.451Z,19.30
2019-02-26T14:34:07.169Z,19.10
2019-02-26T14:36:36.790Z,18.90
2019-02-26T14:39:07.248Z,19.00
2019-02-26T14:41:36.626Z,19.00
2019-02-26T14:44:07.792Z,18.90
2019-02-26T14:46:37.117Z,18.90
2019-02-26T14:49:06.411Z,19.00
2019-02-26T14:51:37.847Z,19.00
2019-02-26T14:54:07.173Z,18.80
2019-02-26T14:56:36.455Z,18.70
2019-02-26T14:59:05.849Z,18.70
2019-02-26T15:01:35.499Z,18.70
2019-02-26T15:04:05.136Z,18.80
2019-02-26T15:06:34.425Z,18.70
2019-02-26T15:09:04.686Z,18.70
2019-02-26T15:11:34.378Z,18.80
2019-02-26T15:14:04.298Z,18.70
2019-02-26T15:16:34.133Z,18.60
2019-02-26T15:19:03.485Z,18.60
2019-02-26T15:21:32.761Z,18.60
2019-02-26T15:24:02.786Z,18.60
2019-02-26T15:26:32.126Z,18.50
2019-02-26T15:29:02.897Z,18.40
2019-02-26T15:31:32.869Z,18.40
2019-02-26T15:34:02.275Z,18.40
2019-02-26T15:36:32.433Z,18.40
2019-02-26T15:39:01.856Z,18.40
2019-02-26T15:41:31.220Z,18.50
2019-02-26T15:44:02.983Z,18.40
2019-02-26T15:46:32.377Z,18.30
2019-02-26T15:49:01.656Z,18.30
2019-02-26T15:51:31.121Z,18.20
2019-02-26T15:54:01.005Z,18.10
2019-02-26T15:56:30.357Z,18.00
2019-02-26T15:59:00.336Z,18.00
2019-02-26T16:01:30.034Z,18.00
2019-02-26T16:04:00.633Z,17.90
2019-02-26T16:06:29.918Z,17.90
2019-02-26T16:08:59.897Z,17.80
2019-02-26T16:11:29.767Z,17.80
2019-02-26T16:13:59.904Z,17.70
2019-02-26T16:16:31.666Z,17.70
2019-02-26T16:19:02.450Z,17.60
2019-02-26T16:21:32.121Z,17.60
2019-02-26T16:24:01.433Z,17.50
2019-02-26T16:26:33.863Z,17.50
2019-02-26T16:29:03.122Z,17.40
2019-02-26T16:31:32.429Z,17.40
2019-02-26T16:34:02.138Z,17.30
2019-02-26T16:36:32.182Z,17.30
2019-02-26T16:39:04.816Z,17.30
2019-02-26T16:41:38.047Z,17.20
2019-02-26T16:44:05.900Z,17.20
2019-02-26T16:46:39.607Z,17.10
2019-02-26T16:49:10.665Z,17.10
2019-02-26T16:51:40.015Z,17.00
2019-02-26T16:54:09.789Z,17.00
2019-02-26T16:56:40.172Z,16.90
2019-02-26T16:59:09.557Z,16.80
2019-02-26T17:01:42.953Z,16.80
2019-02-26T17:04:14.153Z,16.70
2019-02-26T17:06:43.539Z,16.60
2019-02-26T17:09:19.065Z,16.60
2019-02-26T17:11:49.504Z,16.50
2019-02-26T17:14:19.158Z,16.40
2019-02-26T17:16:48.819Z,16.30
2019-02-26T17:19:18.319Z,16.30
2019-02-26T17:21:47.707Z,16.20
2019-02-26T17:24:18.476Z,16.10
2019-02-26T17:26:48.495Z,16.00
2019-02-26T17:29:20.356Z,15.90
2019-02-26T17:31:51.474Z,15.80
2019-02-26T17:34:23.490Z,15.70
2019-02-26T17:36:54.684Z,15.70
2019-02-26T17:39:26.012Z,15.60
2019-02-26T17:41:55.100Z,15.50
2019-02-26T17:44:25.970Z,15.40
2019-02-26T17:46:55.379Z,15.40
2019-02-26T17:49:24.685Z,15.30
2019-02-26T17:51:54.040Z,15.20
2019-02-26T17:54:23.448Z,15.20
2019-02-26T17:56:52.793Z,15.10
2019-02-26T17:59:29.190Z,15.10
2019-02-26T18:01:58.564Z,15.00
2019-02-26T18:04:27.945Z,15.00
2019-02-26T18:07:00.403Z,14.90
2019-02-26T18:09:34.330Z,14.80
2019-02-26T18:12:02.321Z,14.80
2019-02-26T18:14:33.013Z,14.80
2019-02-26T18:17:02.554Z,14.70
2019-02-26T18:19:31.820Z,14.60
2019-02-26T18:22:03.296Z,14.50
2019-02-26T18:24:32.597Z,14.40
2019-02-26T18:27:01.908Z,14.30
2019-02-26T18:29:34.338Z,14.30
2019-02-26T18:32:03.634Z,14.20
2019-02-26T18:34:33.685Z,14.20
2019-02-26T18:37:03.627Z,14.10
2019-02-26T18:39:32.927Z,14.10
2019-02-26T18:42:07.611Z,14.00
2019-02-26T18:44:36.851Z,14.00
2019-02-26T18:47:07.915Z,14.00
2019-02-26T18:49:37.564Z,13.90
2019-02-26T18:52:10.469Z,13.90
2019-02-26T18:54:39.763Z,13.80
2019-02-26T18:57:11.544Z,13.70
2019-02-26T18:59:40.795Z,13.70
2019-02-26T19:02:10.858Z,13.70
2019-02-26T19:04:40.218Z,13.60
2019-02-26T19:07:32.976Z,13.60
2019-02-26T19:10:00.400Z,13.50
2019-02-26T19:12:30.573Z,13.60
2019-02-26T19:15:00.922Z,13.50
2019-02-26T19:17:30.885Z,13.50
2019-02-26T19:20:01.647Z,13.40
2019-02-26T19:22:31.075Z,13.40
2019-02-26T19:25:00.506Z,13.40
2019-02-26T19:27:32.155Z,13.30
2019-02-26T19:30:04.170Z,13.30
2019-02-26T19:32:36.828Z,13.30
2019-02-26T19:35:12.214Z,13.20
2019-02-26T19:37:39.867Z,13.20
2019-02-26T19:40:11.827Z,13.10
2019-02-26T19:42:42.706Z,13.10
2019-02-26T19:45:12.485Z,13.00
2019-02-26T19:47:45.511Z,12.90
2019-02-26T19:50:15.810Z,12.90
2019-02-26T19:52:45.172Z,12.90
2019-02-26T19:55:20.347Z,12.90
2019-02-26T19:57:50.527Z,12.80
2019-02-26T20:00:20.543Z,12.80
2019-02-26T20:02:50.404Z,12.70
2019-02-26T20:05:19.806Z,12.70
2019-02-26T20:07:49.902Z,12.70
2019-02-26T20:10:20.285Z,12.60
2019-02-26T20:12:50.921Z,12.60
2019-02-26T20:15:21.887Z,12.50
2019-02-26T20:17:52.815Z,12.50
2019-02-26T20:20:23.108Z,12.50
2019-02-26T20:22:55.163Z,12.40
2019-02-26T20:25:27.975Z,12.40
2019-02-26T20:28:04.819Z,12.30
2019-02-26T20:30:31.596Z,12.40
2019-02-26T20:33:01.619Z,12.30
2019-02-26T20:35:32.636Z,12.30
2019-02-26T20:38:02.002Z,12.30
2019-02-26T20:40:31.749Z,12.20
2019-02-26T20:43:01.904Z,12.20
2019-02-26T20:45:32.906Z,12.10
2019-02-26T20:48:04.232Z,12.00
2019-02-26T20:50:36.389Z,12.00
2019-02-26T20:53:06.521Z,12.00
2019-02-26T20:55:39.048Z,11.90
2019-02-26T20:58:09.621Z,11.90
2019-02-26T21:00:42.478Z,11.90
2019-02-26T21:03:13.544Z,11.90
2019-02-26T21:05:44.656Z,11.80
2019-02-26T21:08:14.104Z,11.80
2019-02-26T21:10:48.025Z,11.80
2019-02-26T21:13:20.592Z,11.80
2019-02-26T21:15:50.099Z,11.70
2019-02-26T21:18:19.923Z,11.70
2019-02-26T21:20:49.375Z,11.70
2019-02-26T21:23:19.148Z,11.60
2019-02-26T21:25:48.425Z,11.60
2019-02-26T21:28:18.083Z,11.60
2019-02-26T21:30:47.388Z,11.60
2019-02-26T21:33:18.312Z,11.50
2019-02-26T21:35:47.627Z,11.50
2019-02-26T21:38:18.506Z,11.50
2019-02-26T21:40:49.680Z,11.40
2019-02-26T21:43:19.271Z,11.30
2019-02-26T21:45:53.345Z,11.30
2019-02-26T21:48:23.748Z,11.30
2019-02-26T21:50:55.339Z,11.30
2019-02-26T21:53:25.377Z,11.40
2019-02-26T21:55:55.621Z,11.40
2019-02-26T21:58:26.830Z,11.40
2019-02-26T22:00:56.797Z,11.40
2019-02-26T22:03:28.554Z,11.40
2019-02-26T22:06:05.047Z,11.50
2019-02-26T22:08:29.155Z,11.50
2019-02-26T22:10:58.409Z,11.50
2019-02-26T22:13:29.279Z,11.40
2019-02-26T22:15:59.210Z,11.40
2019-02-26T22:18:30.848Z,11.40
2019-02-26T22:21:02.405Z,11.50
2019-02-26T22:23:34.061Z,11.50
2019-02-26T22:26:02.807Z,11.40
2019-02-26T22:28:35.177Z,11.40
2019-02-26T22:31:04.583Z,11.50
2019-02-26T22:33:34.352Z,11.50
2019-02-26T22:36:05.237Z,11.50
2019-02-26T22:38:34.576Z,11.50
2019-02-26T22:41:22.925Z,11.50
2019-02-26T22:43:53.618Z,11.50
2019-02-26T22:46:22.941Z,11.40
2019-02-26T22:48:52.581Z,11.40
2019-02-26T22:51:21.901Z,11.30
2019-02-26T22:53:51.274Z,11.30
2019-02-26T22:56:21.899Z,11.30
2019-02-26T22:58:53.188Z,11.20
2019-02-26T23:01:36.338Z,11.20
2019-02-26T23:04:03.702Z,11.10
2019-02-26T23:06:33.297Z,11.10
2019-02-26T23:09:03.771Z,11.00
2019-02-26T23:11:34.057Z,11.00
2019-02-26T23:14:04.927Z,10.90
2019-02-26T23:16:36.420Z,10.90
2019-02-26T23:19:05.998Z,10.90
2019-02-26T23:21:35.555Z,11.00
2019-02-26T23:24:05.310Z,11.00
2019-02-26T23:26:37.133Z,11.00
2019-02-26T23:29:07.139Z,10.90
2019-02-26T23:31:36.520Z,10.90
2019-02-26T23:34:09.552Z,10.90
2019-02-26T23:36:39.399Z,10.90
2019-02-26T23:39:11.038Z,10.90
2019-02-26T23:41:40.426Z,10.90
2019-02-26T23:44:09.742Z,10.90
2019-02-26T23:46:39.388Z,10.90
2019-02-26T23:49:08.988Z,10.90
2019-02-26T23:51:38.862Z,10.90
2019-02-26T23:54:08.229Z,11.00
2019-02-26T23:56:37.962Z,10.90
2019-02-26T23:59:11.584Z,10.90
